sensor_id;sensor_type;location;lat;lon;timestamp;pressure;altitude;pressure_sealevel;temperature;humidity
13033;BME280;6583;42.632;23.298;2023-05-01T00:00:49;70453.56;;;-146.40;69.93
13033;BME280;6583;42.632;23.298;2023-05-01T00:03:16;70463.69;;;-146.40;70.35
13033;BME280;6583;42.632;23.298;2023-05-01T00:05:43;70463.69;;;-146.40;70.49
13033;BME280;6583;42.632;23.298;2023-05-01T00:08:10;70461.66;;;-146.40;70.34
13033;BME280;6583;42.632;23.298;2023-05-01T00:10:37;70465.69;;;-146.40;70.42
13033;BME280;6583;42.632;23.298;2023-05-01T00:13:04;70463.69;;;-146.40;70.98
13033;BME280;6583;42.632;23.298;2023-05-01T00:15:31;70465.69;;;-146.40;71.02
13033;BME280;6583;42.632;23.298;2023-05-01T00:17:59;70477.84;;;-146.40;71.82
13033;BME280;6583;42.632;23.298;2023-05-01T00:20:26;70473.78;;;-146.40;72.19
13033;BME280;6583;42.632;23.298;2023-05-01T00:22:53;70475.81;;;-146.40;72.21
13033;BME280;6583;42.632;23.298;2023-05-01T00:25:20;70481.88;;;-146.40;72.07
13033;BME280;6583;42.632;23.298;2023-05-01T00:27:46;70481.88;;;-146.40;72.37
13033;BME280;6583;42.632;23.298;2023-05-01T00:30:13;70481.88;;;-146.40;72.40
13033;BME280;6583;42.632;23.298;2023-05-01T00:32:40;70473.78;;;-146.40;72.60
13033;BME280;6583;42.632;23.298;2023-05-01T00:35:08;70469.75;;;-146.40;71.93
13033;BME280;6583;42.632;23.298;2023-05-01T00:37:35;70473.78;;;-146.40;71.69
13033;BME280;6583;42.632;23.298;2023-05-01T00:40:06;70469.75;;;-146.40;71.81
13033;BME280;6583;42.632;23.298;2023-05-01T00:42:34;70469.75;;;-146.40;72.09
13033;BME280;6583;42.632;23.298;2023-05-01T00:45:01;70461.66;;;-146.40;72.41
13033;BME280;6583;42.632;23.298;2023-05-01T00:47:28;70465.69;;;-146.40;72.12
13033;BME280;6583;42.632;23.298;2023-05-01T00:49:55;70469.75;;;-146.40;71.81
13033;BME280;6583;42.632;23.298;2023-05-01T00:52:23;70471.78;;;-146.40;72.89
13033;BME280;6583;42.632;23.298;2023-05-01T00:54:50;70469.75;;;-146.40;73.15
13033;BME280;6583;42.632;23.298;2023-05-01T00:57:18;70467.72;;;-146.40;72.90
13033;BME280;6583;42.632;23.298;2023-05-01T00:59:45;70469.75;;;-146.40;73.03
13033;BME280;6583;42.632;23.298;2023-05-01T01:02:12;70469.75;;;-146.40;72.39
13033;BME280;6583;42.632;23.298;2023-05-01T01:04:40;70465.69;;;-146.40;72.59
13033;BME280;6583;42.632;23.298;2023-05-01T01:07:10;70475.81;;;-146.40;72.94
13033;BME280;6583;42.632;23.298;2023-05-01T01:09:43;70473.78;;;-146.40;73.19
13033;BME280;6583;42.632;23.298;2023-05-01T01:12:19;70477.84;;;-146.40;72.07
13033;BME280;6583;42.632;23.298;2023-05-01T01:14:57;70479.88;;;-146.40;72.42
13033;BME280;6583;42.632;23.298;2023-05-01T01:17:31;70477.84;;;-146.40;70.65
13033;BME280;6583;42.632;23.298;2023-05-01T01:20:24;70479.88;;;-146.40;71.35
13033;BME280;6583;42.632;23.298;2023-05-01T01:23:02;70485.94;;;-146.40;71.03
13033;BME280;6583;42.632;23.298;2023-05-01T01:26:06;70475.81;;;-146.40;70.43
13033;BME280;6583;42.632;23.298;2023-05-01T01:29:21;70487.97;;;-146.40;69.35
13033;BME280;6583;42.632;23.298;2023-05-01T01:31:59;70483.91;;;-146.40;69.15
13033;BME280;6583;42.632;23.298;2023-05-01T01:34:33;70485.94;;;-146.40;68.94
13033;BME280;6583;42.632;23.298;2023-05-01T01:37:04;70481.88;;;-146.40;68.21
13033;BME280;6583;42.632;23.298;2023-05-01T01:39:42;70471.78;;;-146.40;67.67
13033;BME280;6583;42.632;23.298;2023-05-01T01:42:14;70475.81;;;-146.40;67.86
13033;BME280;6583;42.632;23.298;2023-05-01T01:44:46;70473.78;;;-146.40;67.57
13033;BME280;6583;42.632;23.298;2023-05-01T01:47:15;70473.78;;;-146.40;67.27
13033;BME280;6583;42.632;23.298;2023-05-01T01:49:48;70473.78;;;-146.40;66.93
13033;BME280;6583;42.632;23.298;2023-05-01T01:52:17;70477.84;;;-146.40;67.17
13033;BME280;6583;42.632;23.298;2023-05-01T01:54:49;70481.88;;;-146.40;65.98
13033;BME280;6583;42.632;23.298;2023-05-01T01:57:18;70479.88;;;-146.40;65.90
13033;BME280;6583;42.632;23.298;2023-05-01T01:59:46;70481.88;;;-146.40;65.81
13033;BME280;6583;42.632;23.298;2023-05-01T02:02:15;70481.88;;;-146.40;65.58
13033;BME280;6583;42.632;23.298;2023-05-01T02:04:46;70481.88;;;-146.40;65.13
13033;BME280;6583;42.632;23.298;2023-05-01T02:07:14;70530.44;;;-146.40;66.53
13033;BME280;6583;42.632;23.298;2023-05-01T02:09:43;70540.56;;;-146.40;67.77
13033;BME280;6583;42.632;23.298;2023-05-01T02:12:12;70554.72;;;-146.40;68.59
13033;BME280;6583;42.632;23.298;2023-05-01T02:14:40;70562.81;;;-146.40;69.19
13033;BME280;6583;42.632;23.298;2023-05-01T02:17:08;70572.94;;;-146.40;69.64
13033;BME280;6583;42.632;23.298;2023-05-01T02:19:37;70579.00;;;-146.40;69.88
13033;BME280;6583;42.632;23.298;2023-05-01T02:22:07;70570.91;;;-146.40;70.27
13033;BME280;6583;42.632;23.298;2023-05-01T02:24:35;70566.88;;;-146.40;70.00
13033;BME280;6583;42.632;23.298;2023-05-01T02:27:06;70581.03;;;-146.40;70.18
13033;BME280;6583;42.632;23.298;2023-05-01T02:29:34;70593.16;;;-146.40;71.08
13033;BME280;6583;42.632;23.298;2023-05-01T02:32:00;70611.38;;;-146.40;71.90
13033;BME280;6583;42.632;23.298;2023-05-01T02:34:27;70607.31;;;-146.40;71.46
13033;BME280;6583;42.632;23.298;2023-05-01T02:36:54;70603.28;;;-146.40;71.75
13033;BME280;6583;42.632;23.298;2023-05-01T02:39:22;70603.28;;;-146.40;71.58
13033;BME280;6583;42.632;23.298;2023-05-01T02:41:51;70613.41;;;-146.40;71.39
13033;BME280;6583;42.632;23.298;2023-05-01T02:44:21;70623.50;;;-146.40;71.97
13033;BME280;6583;42.632;23.298;2023-05-01T02:46:51;70633.63;;;-146.40;72.40
13033;BME280;6583;42.632;23.298;2023-05-01T02:49:19;70653.88;;;-146.40;73.28
13033;BME280;6583;42.632;23.298;2023-05-01T02:51:47;70655.88;;;-146.40;74.46
13033;BME280;6583;42.632;23.298;2023-05-01T02:54:14;70655.88;;;-146.40;74.44
13033;BME280;6583;42.632;23.298;2023-05-01T02:56:43;70643.75;;;-146.40;73.34
13033;BME280;6583;42.632;23.298;2023-05-01T02:59:09;70639.69;;;-146.40;73.25
13033;BME280;6583;42.632;23.298;2023-05-01T03:01:36;70639.69;;;-146.40;73.94
13033;BME280;6583;42.632;23.298;2023-05-01T03:04:04;70633.63;;;-146.40;73.98
13033;BME280;6583;42.632;23.298;2023-05-01T03:06:31;70627.56;;;-146.40;73.08
13033;BME280;6583;42.632;23.298;2023-05-01T03:08:57;70619.47;;;-146.40;72.77
13033;BME280;6583;42.632;23.298;2023-05-01T03:11:24;70611.38;;;-146.40;72.55
13033;BME280;6583;42.632;23.298;2023-05-01T03:13:52;70609.34;;;-146.40;72.86
13033;BME280;6583;42.632;23.298;2023-05-01T03:16:19;70621.50;;;-146.40;73.75
13033;BME280;6583;42.632;23.298;2023-05-01T03:18:45;70633.63;;;-146.40;74.29
13033;BME280;6583;42.632;23.298;2023-05-01T03:21:12;70643.75;;;-146.40;74.18
13033;BME280;6583;42.632;23.298;2023-05-01T03:23:39;70639.69;;;-146.40;74.66
13033;BME280;6583;42.632;23.298;2023-05-01T03:26:06;70639.69;;;-146.40;74.44
13033;BME280;6583;42.632;23.298;2023-05-01T03:28:32;70627.56;;;-146.40;73.84
13033;BME280;6583;42.632;23.298;2023-05-01T03:31:01;70623.50;;;-146.40;73.16
13033;BME280;6583;42.632;23.298;2023-05-01T03:33:28;70627.56;;;-146.40;73.33
13033;BME280;6583;42.632;23.298;2023-05-01T03:35:59;70627.56;;;-146.40;73.13
13033;BME280;6583;42.632;23.298;2023-05-01T03:38:28;70641.72;;;-146.40;72.61
13033;BME280;6583;42.632;23.298;2023-05-01T03:40:54;70647.78;;;-146.40;72.15
13033;BME280;6583;42.632;23.298;2023-05-01T03:43:21;70655.88;;;-146.40;72.72
13033;BME280;6583;42.632;23.298;2023-05-01T03:45:49;70676.13;;;-146.40;74.08
13033;BME280;6583;42.632;23.298;2023-05-01T03:48:17;70674.09;;;-146.40;75.06
13033;BME280;6583;42.632;23.298;2023-05-01T03:50:44;70680.16;;;-146.40;76.08
13033;BME280;6583;42.632;23.298;2023-05-01T03:53:11;70694.34;;;-146.40;76.60
13033;BME280;6583;42.632;23.298;2023-05-01T03:55:38;70692.31;;;-146.40;77.34
13033;BME280;6583;42.632;23.298;2023-05-01T03:58:05;70688.25;;;-146.40;76.99
13033;BME280;6583;42.632;23.298;2023-05-01T04:00:32;70692.31;;;-146.40;77.53
13033;BME280;6583;42.632;23.298;2023-05-01T04:02:59;70704.44;;;-146.40;77.46
13033;BME280;6583;42.632;23.298;2023-05-01T04:05:27;70704.44;;;-146.40;78.22
13033;BME280;6583;42.632;23.298;2023-05-01T04:07:53;70700.41;;;-146.40;78.64
13033;BME280;6583;42.632;23.298;2023-05-01T04:10:20;70692.31;;;-146.40;79.19
13033;BME280;6583;42.632;23.298;2023-05-01T04:12:47;70676.13;;;-146.40;77.52
13033;BME280;6583;42.632;23.298;2023-05-01T04:15:14;70663.97;;;-146.40;77.45
13033;BME280;6583;42.632;23.298;2023-05-01T04:17:41;70657.91;;;-146.40;78.49
13033;BME280;6583;42.632;23.298;2023-05-01T04:20:09;70668.03;;;-146.40;78.38
13033;BME280;6583;42.632;23.298;2023-05-01T04:22:38;70657.91;;;-146.40;79.11
13033;BME280;6583;42.632;23.298;2023-05-01T04:25:05;70653.88;;;-146.40;79.09
13033;BME280;6583;42.632;23.298;2023-05-01T04:27:33;70641.72;;;-146.40;79.24
13033;BME280;6583;42.632;23.298;2023-05-01T04:29:59;70627.56;;;-146.40;79.50
13033;BME280;6583;42.632;23.298;2023-05-01T04:32:26;70621.50;;;-146.40;79.23
13033;BME280;6583;42.632;23.298;2023-05-01T04:34:53;70601.25;;;-146.40;79.35
13033;BME280;6583;42.632;23.298;2023-05-01T04:37:19;70589.13;;;-146.40;79.82
13033;BME280;6583;42.632;23.298;2023-05-01T04:39:47;70568.88;;;-146.40;79.59
13033;BME280;6583;42.632;23.298;2023-05-01T04:42:15;70548.66;;;-146.40;78.22
13033;BME280;6583;42.632;23.298;2023-05-01T04:44:41;70536.50;;;-146.40;77.69
13033;BME280;6583;42.632;23.298;2023-05-01T04:47:08;70524.38;;;-146.40;77.04
13033;BME280;6583;42.632;23.298;2023-05-01T04:49:35;70520.34;;;-146.40;76.94
13033;BME280;6583;42.632;23.298;2023-05-01T04:52:01;70538.53;;;-146.40;76.89
13033;BME280;6583;42.632;23.298;2023-05-01T04:54:28;70534.50;;;-146.40;76.82
13033;BME280;6583;42.632;23.298;2023-05-01T04:56:56;70532.47;;;-146.40;76.51
13033;BME280;6583;42.632;23.298;2023-05-01T04:59:23;70534.50;;;-146.40;76.55
13033;BME280;6583;42.632;23.298;2023-05-01T05:01:49;70518.31;;;-146.40;76.66
13033;BME280;6583;42.632;23.298;2023-05-01T05:04:16;70514.25;;;-146.40;76.46
13033;BME280;6583;42.632;23.298;2023-05-01T05:06:43;70512.25;;;-146.40;76.53
13033;BME280;6583;42.632;23.298;2023-05-01T05:09:09;70498.06;;;-146.40;76.42
13033;BME280;6583;42.632;23.298;2023-05-01T05:11:37;70500.09;;;-146.40;76.86
13033;BME280;6583;42.632;23.298;2023-05-01T05:14:05;70487.97;;;-146.40;77.13
13033;BME280;6583;42.632;23.298;2023-05-01T05:16:32;70485.94;;;-146.40;77.33
13033;BME280;6583;42.632;23.298;2023-05-01T05:18:59;70485.94;;;-146.40;77.38
13033;BME280;6583;42.632;23.298;2023-05-01T05:21:26;70481.88;;;-146.40;77.53
13033;BME280;6583;42.632;23.298;2023-05-01T05:23:53;70481.88;;;-146.40;75.41
13033;BME280;6583;42.632;23.298;2023-05-01T05:26:20;70479.88;;;-146.40;76.07
13033;BME280;6583;42.632;23.298;2023-05-01T05:28:47;70481.88;;;-146.40;76.24
13033;BME280;6583;42.632;23.298;2023-05-01T05:31:15;70496.06;;;-146.40;76.22
13033;BME280;6583;42.632;23.298;2023-05-01T05:33:41;70483.91;;;-146.40;75.25
13033;BME280;6583;42.632;23.298;2023-05-01T05:36:08;70485.94;;;-146.40;75.21
13033;BME280;6583;42.632;23.298;2023-05-01T05:38:35;70492.00;;;-146.40;74.59
13033;BME280;6583;42.632;23.298;2023-05-01T05:41:03;70485.94;;;-146.40;75.09
13033;BME280;6583;42.632;23.298;2023-05-01T05:43:29;70512.25;;;-146.40;75.26
13033;BME280;6583;42.632;23.298;2023-05-01T05:45:56;70492.00;;;-146.40;76.10
13033;BME280;6583;42.632;23.298;2023-05-01T05:48:25;70477.84;;;-146.40;75.39
13033;BME280;6583;42.632;23.298;2023-05-01T05:50:52;70469.75;;;-146.40;74.86
13033;BME280;6583;42.632;23.298;2023-05-01T05:53:19;70447.50;;;-146.40;74.85
13033;BME280;6583;42.632;23.298;2023-05-01T05:55:46;70413.09;;;-146.40;74.62
13033;BME280;6583;42.632;23.298;2023-05-01T05:58:13;70388.81;;;-146.40;73.27
13033;BME280;6583;42.632;23.298;2023-05-01T06:00:44;70374.66;;;-146.40;73.00
13033;BME280;6583;42.632;23.298;2023-05-01T06:03:11;70352.41;;;-146.40;70.99
13033;BME280;6583;42.632;23.298;2023-05-01T06:05:39;70322.06;;;-146.40;70.32
13033;BME280;6583;42.632;23.298;2023-05-01T06:08:06;70307.91;;;-146.40;69.70
13033;BME280;6583;42.632;23.298;2023-05-01T06:10:34;70295.75;;;-146.40;68.84
13033;BME280;6583;42.632;23.298;2023-05-01T06:13:01;70275.53;;;-146.40;68.16
13033;BME280;6583;42.632;23.298;2023-05-01T06:15:28;70279.56;;;-146.40;66.58
13033;BME280;6583;42.632;23.298;2023-05-01T06:17:55;70279.56;;;-146.40;67.38
13033;BME280;6583;42.632;23.298;2023-05-01T06:20:22;70255.28;;;-146.40;66.24
13033;BME280;6583;42.632;23.298;2023-05-01T06:22:50;70226.97;;;-146.40;65.43
13033;BME280;6583;42.632;23.298;2023-05-01T06:25:17;70212.81;;;-146.40;63.55
13033;BME280;6583;42.632;23.298;2023-05-01T06:27:43;70182.47;;;-146.40;62.97
13033;BME280;6583;42.632;23.298;2023-05-01T06:30:10;70152.13;;;-146.40;61.23
13033;BME280;6583;42.632;23.298;2023-05-01T06:32:37;70131.91;;;-146.40;60.51
13033;BME280;6583;42.632;23.298;2023-05-01T06:35:06;70125.81;;;-146.40;60.41
13033;BME280;6583;42.632;23.298;2023-05-01T06:37:33;70144.03;;;-146.40;59.95
13033;BME280;6583;42.632;23.298;2023-05-01T06:40:01;70133.91;;;-146.40;59.75
13033;BME280;6583;42.632;23.298;2023-05-01T06:42:29;70135.94;;;-146.40;60.69
13033;BME280;6583;42.632;23.298;2023-05-01T06:44:55;70131.91;;;-146.40;59.85
13033;BME280;6583;42.632;23.298;2023-05-01T06:47:22;70105.59;;;-146.40;59.21
13033;BME280;6583;42.632;23.298;2023-05-01T06:49:49;70091.44;;;-146.40;58.42
13033;BME280;6583;42.632;23.298;2023-05-01T06:52:15;70073.22;;;-146.40;57.25
13033;BME280;6583;42.632;23.298;2023-05-01T06:54:42;70077.28;;;-146.40;55.81
13033;BME280;6583;42.632;23.298;2023-05-01T06:57:10;70048.97;;;-146.40;55.63
13033;BME280;6583;42.632;23.298;2023-05-01T06:59:37;70032.78;;;-146.40;55.87
13033;BME280;6583;42.632;23.298;2023-05-01T07:02:04;70016.59;;;-146.40;54.27
13033;BME280;6583;42.632;23.298;2023-05-01T07:04:31;70008.50;;;-146.40;54.02
13033;BME280;6583;42.632;23.298;2023-05-01T07:06:58;70000.41;;;-146.40;51.14
13033;BME280;6583;42.632;23.298;2023-05-01T07:09:25;70004.44;;;-146.40;53.47
13033;BME280;6583;42.632;23.298;2023-05-01T07:11:51;70008.50;;;-146.40;52.97
13033;BME280;6583;42.632;23.298;2023-05-01T07:14:22;70020.63;;;-146.40;53.01
13033;BME280;6583;42.632;23.298;2023-05-01T07:16:49;70010.53;;;-146.40;52.57
13033;BME280;6583;42.632;23.298;2023-05-01T07:19:15;69988.25;;;-146.40;51.34
13033;BME280;6583;42.632;23.298;2023-05-01T07:21:42;69982.19;;;-146.40;50.90
13033;BME280;6583;42.632;23.298;2023-05-01T07:24:09;69974.09;;;-146.40;50.89
13033;BME280;6583;42.632;23.298;2023-05-01T07:26:36;69974.09;;;-146.40;50.87
13033;BME280;6583;42.632;23.298;2023-05-01T07:29:03;69970.06;;;-146.40;50.53
13033;BME280;6583;42.632;23.298;2023-05-01T07:31:32;69972.09;;;-146.40;51.31
13033;BME280;6583;42.632;23.298;2023-05-01T07:33:59;69978.16;;;-146.40;50.68
13033;BME280;6583;42.632;23.298;2023-05-01T07:36:25;69980.19;;;-146.40;49.34
13033;BME280;6583;42.632;23.298;2023-05-01T07:38:52;69968.03;;;-146.40;50.06
13033;BME280;6583;42.632;23.298;2023-05-01T07:41:19;69955.91;;;-146.40;48.64
13033;BME280;6583;42.632;23.298;2023-05-01T07:43:47;69945.78;;;-146.40;48.53
13033;BME280;6583;42.632;23.298;2023-05-01T07:46:13;69927.59;;;-146.40;47.92
13033;BME280;6583;42.632;23.298;2023-05-01T07:48:41;69917.47;;;-146.40;47.05
13033;BME280;6583;42.632;23.298;2023-05-01T07:51:08;69893.19;;;-146.40;45.83
13033;BME280;6583;42.632;23.298;2023-05-01T07:53:35;69891.16;;;-146.40;46.12
13033;BME280;6583;42.632;23.298;2023-05-01T07:56:06;69866.91;;;-146.40;45.26
13033;BME280;6583;42.632;23.298;2023-05-01T07:58:33;69864.88;;;-146.40;46.09
13033;BME280;6583;42.632;23.298;2023-05-01T08:01:00;69850.72;;;-146.40;47.31
13033;BME280;6583;42.632;23.298;2023-05-01T08:03:27;69862.84;;;-146.40;46.94
13033;BME280;6583;42.632;23.298;2023-05-01T08:05:56;69866.91;;;-146.40;47.70
13033;BME280;6583;42.632;23.298;2023-05-01T08:08:23;69868.91;;;-146.40;46.49
13033;BME280;6583;42.632;23.298;2023-05-01T08:10:50;69879.03;;;-146.40;43.47
13033;BME280;6583;42.632;23.298;2023-05-01T08:13:17;69891.16;;;-146.40;46.69
13033;BME280;6583;42.632;23.298;2023-05-01T08:15:45;69909.38;;;-146.40;44.60
13033;BME280;6583;42.632;23.298;2023-05-01T08:18:12;69907.34;;;-146.40;46.46
13033;BME280;6583;42.632;23.298;2023-05-01T08:20:44;69895.22;;;-146.40;44.65
13033;BME280;6583;42.632;23.298;2023-05-01T08:23:12;69887.13;;;-146.40;45.13
13033;BME280;6583;42.632;23.298;2023-05-01T08:25:39;69877.00;;;-146.40;43.89
13033;BME280;6583;42.632;23.298;2023-05-01T08:28:06;69895.22;;;-146.40;44.27
13033;BME280;6583;42.632;23.298;2023-05-01T08:30:33;69883.06;;;-146.40;45.61
13033;BME280;6583;42.632;23.298;2023-05-01T08:32:59;69905.31;;;-146.40;40.93
13033;BME280;6583;42.632;23.298;2023-05-01T08:35:26;69911.41;;;-146.40;41.24
13033;BME280;6583;42.632;23.298;2023-05-01T08:37:53;69907.34;;;-146.40;42.94
13033;BME280;6583;42.632;23.298;2023-05-01T08:40:22;69895.22;;;-146.40;42.83
13033;BME280;6583;42.632;23.298;2023-05-01T08:42:49;69870.94;;;-146.40;42.83
13033;BME280;6583;42.632;23.298;2023-05-01T08:45:17;69866.91;;;-146.40;39.80
13033;BME280;6583;42.632;23.298;2023-05-01T08:47:47;69846.66;;;-146.40;41.53
13033;BME280;6583;42.632;23.298;2023-05-01T08:50:15;69834.53;;;-146.40;39.85
13033;BME280;6583;42.632;23.298;2023-05-01T08:52:43;69824.41;;;-146.40;39.52
13033;BME280;6583;42.632;23.298;2023-05-01T08:55:12;69832.50;;;-146.40;39.86
13033;BME280;6583;42.632;23.298;2023-05-01T08:57:43;69822.41;;;-146.40;40.68
13033;BME280;6583;42.632;23.298;2023-05-01T09:00:15;69798.13;;;-146.40;40.34
13033;BME280;6583;42.632;23.298;2023-05-01T09:02:44;69802.16;;;-146.40;41.19
13033;BME280;6583;42.632;23.298;2023-05-01T09:05:12;69822.41;;;-146.40;40.72
13033;BME280;6583;42.632;23.298;2023-05-01T09:07:39;69814.31;;;-146.40;39.90
13033;BME280;6583;42.632;23.298;2023-05-01T09:10:07;69794.06;;;-146.40;40.70
13033;BME280;6583;42.632;23.298;2023-05-01T09:12:33;69775.88;;;-146.40;39.63
13033;BME280;6583;42.632;23.298;2023-05-01T09:15:02;69779.91;;;-146.40;39.11
13033;BME280;6583;42.632;23.298;2023-05-01T09:17:30;69773.84;;;-146.40;39.69
13033;BME280;6583;42.632;23.298;2023-05-01T09:19:58;69773.84;;;-146.40;39.60
13033;BME280;6583;42.632;23.298;2023-05-01T09:22:26;69761.72;;;-146.40;38.02
13033;BME280;6583;42.632;23.298;2023-05-01T09:24:55;69751.59;;;-146.40;38.29
13033;BME280;6583;42.632;23.298;2023-05-01T09:27:24;69729.34;;;-146.40;38.23
13033;BME280;6583;42.632;23.298;2023-05-01T09:29:51;69711.13;;;-146.40;38.54
13033;BME280;6583;42.632;23.298;2023-05-01T09:32:22;69692.94;;;-146.40;38.59
13033;BME280;6583;42.632;23.298;2023-05-01T09:34:50;69684.84;;;-146.40;37.50
13033;BME280;6583;42.632;23.298;2023-05-01T09:37:27;69694.97;;;-146.40;37.44
13033;BME280;6583;42.632;23.298;2023-05-01T09:40:05;69709.13;;;-146.40;37.13
13033;BME280;6583;42.632;23.298;2023-05-01T09:42:34;69725.31;;;-146.40;37.22
13033;BME280;6583;42.632;23.298;2023-05-01T09:45:03;69749.56;;;-146.40;38.11
13033;BME280;6583;42.632;23.298;2023-05-01T09:47:32;69769.81;;;-146.40;37.80
13033;BME280;6583;42.632;23.298;2023-05-01T09:49:59;69771.81;;;-146.40;38.00
13033;BME280;6583;42.632;23.298;2023-05-01T09:52:26;69767.78;;;-146.40;38.85
13033;BME280;6583;42.632;23.298;2023-05-01T09:55:12;69777.91;;;-146.40;38.78
13033;BME280;6583;42.632;23.298;2023-05-01T09:57:40;69794.06;;;-146.40;38.99
13033;BME280;6583;42.632;23.298;2023-05-01T10:00:10;69794.06;;;-146.40;38.39
13033;BME280;6583;42.632;23.298;2023-05-01T10:02:42;69808.22;;;-146.40;37.71
13033;BME280;6583;42.632;23.298;2023-05-01T10:05:09;69810.25;;;-146.40;37.93
13033;BME280;6583;42.632;23.298;2023-05-01T10:07:38;69785.97;;;-146.40;38.88
13033;BME280;6583;42.632;23.298;2023-05-01T10:10:15;69761.72;;;-146.40;37.06
13033;BME280;6583;42.632;23.298;2023-05-01T10:12:42;69753.63;;;-146.40;37.23
13033;BME280;6583;42.632;23.298;2023-05-01T10:15:09;69735.41;;;-146.40;37.06
13033;BME280;6583;42.632;23.298;2023-05-01T10:17:37;69733.38;;;-146.40;35.81
13033;BME280;6583;42.632;23.298;2023-05-01T10:20:06;69719.22;;;-146.40;37.23
13033;BME280;6583;42.632;23.298;2023-05-01T10:22:33;69739.47;;;-146.40;38.79
13033;BME280;6583;42.632;23.298;2023-05-01T10:25:01;69798.13;;;-146.40;39.00
13033;BME280;6583;42.632;23.298;2023-05-01T10:27:29;69802.16;;;-146.40;39.38
13033;BME280;6583;42.632;23.298;2023-05-01T10:29:56;69816.31;;;-146.40;38.86
13033;BME280;6583;42.632;23.298;2023-05-01T10:32:23;69810.25;;;-146.40;38.67
13033;BME280;6583;42.632;23.298;2023-05-01T10:34:57;69828.47;;;-146.40;38.24
13033;BME280;6583;42.632;23.298;2023-05-01T10:37:35;69840.59;;;-146.40;38.93
13033;BME280;6583;42.632;23.298;2023-05-01T10:40:42;69846.66;;;-146.40;39.42
13033;BME280;6583;42.632;23.298;2023-05-01T10:43:12;69846.66;;;-146.40;38.65
13033;BME280;6583;42.632;23.298;2023-05-01T10:45:40;69862.84;;;-146.40;39.06
13033;BME280;6583;42.632;23.298;2023-05-01T10:48:06;69866.91;;;-146.40;39.71
13033;BME280;6583;42.632;23.298;2023-05-01T10:50:33;69881.06;;;-146.40;39.54
13033;BME280;6583;42.632;23.298;2023-05-01T10:53:17;69872.97;;;-146.40;39.75
13033;BME280;6583;42.632;23.298;2023-05-01T10:55:45;69862.84;;;-146.40;39.38
13033;BME280;6583;42.632;23.298;2023-05-01T10:58:13;69850.72;;;-146.40;39.91
13033;BME280;6583;42.632;23.298;2023-05-01T11:00:40;69834.53;;;-146.40;40.53
13033;BME280;6583;42.632;23.298;2023-05-01T11:03:35;69834.53;;;-146.40;40.42
13033;BME280;6583;42.632;23.298;2023-05-01T11:06:09;69836.56;;;-146.40;38.87
13033;BME280;6583;42.632;23.298;2023-05-01T11:08:37;69834.53;;;-146.40;39.20
13033;BME280;6583;42.632;23.298;2023-05-01T11:14:08;69866.91;;;-146.40;40.67
13033;BME280;6583;42.632;23.298;2023-05-01T11:16:43;69868.91;;;-146.40;40.19
13033;BME280;6583;42.632;23.298;2023-05-01T11:19:42;69860.81;;;-146.40;40.21
13033;BME280;6583;42.632;23.298;2023-05-01T11:21:59;69864.88;;;-146.40;41.37
13033;BME280;6583;42.632;23.298;2023-05-01T11:24:33;69868.91;;;-146.40;41.19
13033;BME280;6583;42.632;23.298;2023-05-01T11:27:00;69866.91;;;-146.40;42.30
13033;BME280;6583;42.632;23.298;2023-05-01T11:29:30;69874.97;;;-146.40;41.47
13033;BME280;6583;42.632;23.298;2023-05-01T11:31:58;69868.91;;;-146.40;41.08
13033;BME280;6583;42.632;23.298;2023-05-01T11:34:25;69854.75;;;-146.40;40.69
13033;BME280;6583;42.632;23.298;2023-05-01T11:36:52;69852.72;;;-146.40;40.50
13033;BME280;6583;42.632;23.298;2023-05-01T11:39:19;69846.66;;;-146.40;40.39
13033;BME280;6583;42.632;23.298;2023-05-01T11:41:47;69838.56;;;-146.40;40.22
13033;BME280;6583;42.632;23.298;2023-05-01T11:44:15;69830.47;;;-146.40;40.19
13033;BME280;6583;42.632;23.298;2023-05-01T11:46:42;69818.34;;;-146.40;40.98
13033;BME280;6583;42.632;23.298;2023-05-01T11:49:10;69828.47;;;-146.40;39.65
13033;BME280;6583;42.632;23.298;2023-05-01T11:51:37;69818.34;;;-146.40;39.87
13033;BME280;6583;42.632;23.298;2023-05-01T11:54:05;69840.59;;;-146.40;40.10
13033;BME280;6583;42.632;23.298;2023-05-01T11:56:33;69852.72;;;-146.40;40.47
13033;BME280;6583;42.632;23.298;2023-05-01T12:20:54;69816.31;;;-146.40;38.04
13033;BME280;6583;42.632;23.298;2023-05-01T12:23:29;69826.44;;;-146.40;37.99
13033;BME280;6583;42.632;23.298;2023-05-01T12:25:56;69836.56;;;-146.40;38.29
13033;BME280;6583;42.632;23.298;2023-05-01T12:28:23;69856.78;;;-146.40;37.98
13033;BME280;6583;42.632;23.298;2023-05-01T12:30:52;69879.03;;;-146.40;37.37
13033;BME280;6583;42.632;23.298;2023-05-01T12:33:21;69903.31;;;-146.40;37.79
13033;BME280;6583;42.632;23.298;2023-05-01T12:35:48;69903.31;;;-146.40;37.92
13033;BME280;6583;42.632;23.298;2023-05-01T12:38:18;69899.25;;;-146.40;37.75
13033;BME280;6583;42.632;23.298;2023-05-01T12:40:50;69903.31;;;-146.40;36.99
13033;BME280;6583;42.632;23.298;2023-05-01T12:43:19;69907.34;;;-146.40;37.31
13033;BME280;6583;42.632;23.298;2023-05-01T12:45:51;69927.59;;;-146.40;37.22
13033;BME280;6583;42.632;23.298;2023-05-01T12:48:19;69931.63;;;-146.40;37.46
13033;BME280;6583;42.632;23.298;2023-05-01T12:50:46;69919.50;;;-146.40;38.28
13033;BME280;6583;42.632;23.298;2023-05-01T12:53:20;69929.59;;;-146.40;37.96
13033;BME280;6583;42.632;23.298;2023-05-01T12:55:49;69917.47;;;-146.40;37.89
13033;BME280;6583;42.632;23.298;2023-05-01T12:58:16;69933.66;;;-146.40;37.97
13033;BME280;6583;42.632;23.298;2023-05-01T13:00:47;69921.50;;;-146.40;38.16
13033;BME280;6583;42.632;23.298;2023-05-01T13:03:21;69913.41;;;-146.40;37.94
13033;BME280;6583;42.632;23.298;2023-05-01T13:05:52;69915.44;;;-146.40;38.06
13033;BME280;6583;42.632;23.298;2023-05-01T13:08:29;69915.44;;;-146.40;37.34
13033;BME280;6583;42.632;23.298;2023-05-01T13:10:57;69915.44;;;-146.40;36.38
13033;BME280;6583;42.632;23.298;2023-05-01T13:13:28;69919.50;;;-146.40;36.76